sensor_id;sensor_type;location;lat;lon;timestamp;temperature;humidity
3727;DHT22;1879;45.876;12.300;2022-07-23T00:00:20;28.30;99.90
3727;DHT22;1879;45.876;12.300;2022-07-23T00:02:47;28.20;99.90
3727;DHT22;1879;45.876;12.300;2022-07-23T00:05:16;28.20;99.90
3727;DHT22;1879;45.876;12.300;2022-07-23T00:07:43;28.20;99.90
3727;DHT22;1879;45.876;12.300;2022-07-23T00:10:10;28.10;99.90
3727;DHT22;1879;45.876;12.300;2022-07-23T00:12:38;28.10;99.90
3727;DHT22;1879;45.876;12.300;2022-07-23T00:15:06;28.10;99.90
3727;DHT22;1879;45.876;12.300;2022-07-23T00:17:33;28.00;99.90
3727;DHT22;1879;45.876;12.300;2022-07-23T00:20:01;28.00;99.90
3727;DHT22;1879;45.876;12.300;2022-07-23T00:22:30;28.10;99.90
3727;DHT22;1879;45.876;12.300;2022-07-23T00:24:57;28.10;99.90
3727;DHT22;1879;45.876;12.300;2022-07-23T00:27:24;28.00;99.90
3727;DHT22;1879;45.876;12.300;2022-07-23T00:29:51;27.90;99.90
3727;DHT22;1879;45.876;12.300;2022-07-23T00:32:18;27.80;99.90
3727;DHT22;1879;45.876;12.300;2022-07-23T00:34:45;27.80;99.90
3727;DHT22;1879;45.876;12.300;2022-07-23T00:37:12;27.70;99.90
3727;DHT22;1879;45.876;12.300;2022-07-23T00:39:40;27.70;99.90
3727;DHT22;1879;45.876;12.300;2022-07-23T00:42:07;27.60;99.90
3727;DHT22;1879;45.876;12.300;2022-07-23T00:44:34;27.60;99.90
3727;DHT22;1879;45.876;12.300;2022-07-23T00:47:01;27.50;99.90
3727;DHT22;1879;45.876;12.300;2022-07-23T00:49:29;27.40;99.90
3727;DHT22;1879;45.876;12.300;2022-07-23T00:51:57;27.40;99.90
3727;DHT22;1879;45.876;12.300;2022-07-23T00:54:26;27.30;99.90
3727;DHT22;1879;45.876;12.300;2022-07-23T00:56:54;27.30;99.90
3727;DHT22;1879;45.876;12.300;2022-07-23T00:59:22;27.30;99.90
3727;DHT22;1879;45.876;12.300;2022-07-23T01:01:49;27.20;99.90
3727;DHT22;1879;45.876;12.300;2022-07-23T01:04:16;27.20;99.90
3727;DHT22;1879;45.876;12.300;2022-07-23T01:06:44;27.30;99.90
3727;DHT22;1879;45.876;12.300;2022-07-23T01:09:12;27.30;99.90
3727;DHT22;1879;45.876;12.300;2022-07-23T01:11:40;27.40;99.90
3727;DHT22;1879;45.876;12.300;2022-07-23T01:14:10;27.40;99.90
3727;DHT22;1879;45.876;12.300;2022-07-23T01:16:38;27.30;99.90
3727;DHT22;1879;45.876;12.300;2022-07-23T01:19:05;27.20;99.90
3727;DHT22;1879;45.876;12.300;2022-07-23T01:21:35;27.20;99.90
3727;DHT22;1879;45.876;12.300;2022-07-23T01:24:04;27.20;99.90
3727;DHT22;1879;45.876;12.300;2022-07-23T01:26:32;27.20;99.90
3727;DHT22;1879;45.876;12.300;2022-07-23T01:28:59;27.20;99.90
3727;DHT22;1879;45.876;12.300;2022-07-23T01:31:26;27.20;99.90
3727;DHT22;1879;45.876;12.300;2022-07-23T01:33:53;27.20;99.90
3727;DHT22;1879;45.876;12.300;2022-07-23T01:36:20;27.20;99.90
3727;DHT22;1879;45.876;12.300;2022-07-23T01:38:48;27.20;99.90
3727;DHT22;1879;45.876;12.300;2022-07-23T01:41:16;27.20;99.90
3727;DHT22;1879;45.876;12.300;2022-07-23T01:43:43;27.10;99.90
3727;DHT22;1879;45.876;12.300;2022-07-23T01:46:13;27.00;99.90
3727;DHT22;1879;45.876;12.300;2022-07-23T01:48:40;27.00;99.90
3727;DHT22;1879;45.876;12.300;2022-07-23T01:51:07;27.00;99.90
3727;DHT22;1879;45.876;12.300;2022-07-23T01:53:34;27.00;99.90
3727;DHT22;1879;45.876;12.300;2022-07-23T01:56:02;26.90;99.90
3727;DHT22;1879;45.876;12.300;2022-07-23T01:58:31;27.00;99.90
3727;DHT22;1879;45.876;12.300;2022-07-23T02:00:59;27.00;99.90
3727;DHT22;1879;45.876;12.300;2022-07-23T02:03:26;27.00;99.90
3727;DHT22;1879;45.876;12.300;2022-07-23T02:05:53;27.00;99.90
3727;DHT22;1879;45.876;12.300;2022-07-23T02:08:20;27.00;99.90
3727;DHT22;1879;45.876;12.300;2022-07-23T02:10:49;27.00;99.90
3727;DHT22;1879;45.876;12.300;2022-07-23T02:13:17;27.00;99.90
3727;DHT22;1879;45.876;12.300;2022-07-23T02:15:45;27.00;99.90
3727;DHT22;1879;45.876;12.300;2022-07-23T02:18:12;27.00;99.90
3727;DHT22;1879;45.876;12.300;2022-07-23T02:20:39;26.90;1.00
3727;DHT22;1879;45.876;12.300;2022-07-23T02:23:07;26.80;77.10
3727;DHT22;1879;45.876;12.300;2022-07-23T02:25:34;26.80;78.50
3727;DHT22;1879;45.876;12.300;2022-07-23T02:28:01;26.70;79.30
3727;DHT22;1879;45.876;12.300;2022-07-23T02:30:28;26.70;80.20
3727;DHT22;1879;45.876;12.300;2022-07-23T02:32:56;26.70;80.80
3727;DHT22;1879;45.876;12.300;2022-07-23T02:35:23;26.70;81.60
3727;DHT22;1879;45.876;12.300;2022-07-23T02:37:50;26.70;82.10
3727;DHT22;1879;45.876;12.300;2022-07-23T02:40:18;26.70;82.00
3727;DHT22;1879;45.876;12.300;2022-07-23T02:42:45;26.80;82.30
3727;DHT22;1879;45.876;12.300;2022-07-23T02:45:12;26.80;82.30
3727;DHT22;1879;45.876;12.300;2022-07-23T02:47:39;26.70;81.40
3727;DHT22;1879;45.876;12.300;2022-07-23T02:50:08;26.70;80.20
3727;DHT22;1879;45.876;12.300;2022-07-23T02:52:37;26.70;79.70
3727;DHT22;1879;45.876;12.300;2022-07-23T02:55:05;26.70;79.40
3727;DHT22;1879;45.876;12.300;2022-07-23T02:57:33;26.70;79.20
3727;DHT22;1879;45.876;12.300;2022-07-23T03:00:00;26.70;79.40
3727;DHT22;1879;45.876;12.300;2022-07-23T03:02:27;26.70;79.70
3727;DHT22;1879;45.876;12.300;2022-07-23T03:04:54;26.70;81.40
3727;DHT22;1879;45.876;12.300;2022-07-23T03:07:22;26.60;82.80
3727;DHT22;1879;45.876;12.300;2022-07-23T03:09:49;26.60;83.30
3727;DHT22;1879;45.876;12.300;2022-07-23T03:12:16;26.50;83.80
3727;DHT22;1879;45.876;12.300;2022-07-23T03:14:43;26.40;83.60
3727;DHT22;1879;45.876;12.300;2022-07-23T03:17:10;26.30;84.20
3727;DHT22;1879;45.876;12.300;2022-07-23T03:19:37;26.30;84.50
3727;DHT22;1879;45.876;12.300;2022-07-23T03:22:04;26.40;84.70
3727;DHT22;1879;45.876;12.300;2022-07-23T03:24:33;26.40;84.90
3727;DHT22;1879;45.876;12.300;2022-07-23T03:27:17;26.30;83.80
3727;DHT22;1879;45.876;12.300;2022-07-23T03:29:46;26.30;82.30
3727;DHT22;1879;45.876;12.300;2022-07-23T03:32:13;26.30;81.70
3727;DHT22;1879;45.876;12.300;2022-07-23T03:34:40;26.30;81.60
3727;DHT22;1879;45.876;12.300;2022-07-23T03:37:07;26.30;81.40
3727;DHT22;1879;45.876;12.300;2022-07-23T03:39:35;26.30;81.20
3727;DHT22;1879;45.876;12.300;2022-07-23T03:42:03;26.40;81.20
3727;DHT22;1879;45.876;12.300;2022-07-23T03:44:30;26.40;81.10
3727;DHT22;1879;45.876;12.300;2022-07-23T03:46:57;26.40;81.20
3727;DHT22;1879;45.876;12.300;2022-07-23T03:49:24;26.40;81.50
3727;DHT22;1879;45.876;12.300;2022-07-23T03:51:51;26.40;81.50
3727;DHT22;1879;45.876;12.300;2022-07-23T03:54:18;26.40;81.30
3727;DHT22;1879;45.876;12.300;2022-07-23T03:56:47;26.40;81.10
3727;DHT22;1879;45.876;12.300;2022-07-23T03:59:14;26.50;81.60
3727;DHT22;1879;45.876;12.300;2022-07-23T04:01:41;26.50;81.50
3727;DHT22;1879;45.876;12.300;2022-07-23T04:04:08;26.50;81.70
3727;DHT22;1879;45.876;12.300;2022-07-23T04:06:35;26.50;82.20
3727;DHT22;1879;45.876;12.300;2022-07-23T04:09:03;26.50;82.70
3727;DHT22;1879;45.876;12.300;2022-07-23T04:11:30;26.60;83.30
3727;DHT22;1879;45.876;12.300;2022-07-23T04:13:58;26.60;84.10
3727;DHT22;1879;45.876;12.300;2022-07-23T04:16:25;26.60;85.70
3727;DHT22;1879;45.876;12.300;2022-07-23T04:18:52;26.60;85.60
3727;DHT22;1879;45.876;12.300;2022-07-23T04:21:19;26.60;86.00
3727;DHT22;1879;45.876;12.300;2022-07-23T04:23:47;26.50;86.00
3727;DHT22;1879;45.876;12.300;2022-07-23T04:26:14;26.50;85.90
3727;DHT22;1879;45.876;12.300;2022-07-23T04:28:41;26.50;86.70
3727;DHT22;1879;45.876;12.300;2022-07-23T04:31:09;26.50;87.30
3727;DHT22;1879;45.876;12.300;2022-07-23T04:33:37;26.50;87.40
3727;DHT22;1879;45.876;12.300;2022-07-23T04:36:04;26.50;86.70
3727;DHT22;1879;45.876;12.300;2022-07-23T04:38:31;26.60;86.90
3727;DHT22;1879;45.876;12.300;2022-07-23T04:40:58;26.60;87.50
3727;DHT22;1879;45.876;12.300;2022-07-23T04:43:25;26.60;87.40
3727;DHT22;1879;45.876;12.300;2022-07-23T04:45:52;26.50;87.60
3727;DHT22;1879;45.876;12.300;2022-07-23T04:48:21;26.50;87.60
3727;DHT22;1879;45.876;12.300;2022-07-23T04:50:48;26.50;87.90
3727;DHT22;1879;45.876;12.300;2022-07-23T04:53:15;26.50;88.70
3727;DHT22;1879;45.876;12.300;2022-07-23T04:55:44;26.50;88.80
3727;DHT22;1879;45.876;12.300;2022-07-23T04:58:11;26.50;89.50
3727;DHT22;1879;45.876;12.300;2022-07-23T05:00:38;26.50;89.80
3727;DHT22;1879;45.876;12.300;2022-07-23T05:03:05;26.50;90.00
3727;DHT22;1879;45.876;12.300;2022-07-23T05:05:33;26.50;90.20
3727;DHT22;1879;45.876;12.300;2022-07-23T05:08:01;26.60;90.00
3727;DHT22;1879;45.876;12.300;2022-07-23T05:10:28;26.70;89.50
3727;DHT22;1879;45.876;12.300;2022-07-23T05:12:58;26.90;88.90
3727;DHT22;1879;45.876;12.300;2022-07-23T05:15:25;27.00;88.00
3727;DHT22;1879;45.876;12.300;2022-07-23T05:17:52;27.10;88.10
3727;DHT22;1879;45.876;12.300;2022-07-23T05:20:19;27.20;88.30
3727;DHT22;1879;45.876;12.300;2022-07-23T05:22:47;27.30;89.10
3727;DHT22;1879;45.876;12.300;2022-07-23T05:25:14;27.40;89.40
3727;DHT22;1879;45.876;12.300;2022-07-23T05:27:42;27.50;89.10
3727;DHT22;1879;45.876;12.300;2022-07-23T05:30:10;27.60;89.20
3727;DHT22;1879;45.876;12.300;2022-07-23T05:32:37;27.70;88.90
3727;DHT22;1879;45.876;12.300;2022-07-23T05:35:05;27.70;88.70
3727;DHT22;1879;45.876;12.300;2022-07-23T05:37:32;27.80;89.30
3727;DHT22;1879;45.876;12.300;2022-07-23T05:40:02;27.80;89.90
3727;DHT22;1879;45.876;12.300;2022-07-23T05:42:29;27.80;90.10
3727;DHT22;1879;45.876;12.300;2022-07-23T05:44:56;27.80;90.40
3727;DHT22;1879;45.876;12.300;2022-07-23T05:47:23;27.90;90.60
3727;DHT22;1879;45.876;12.300;2022-07-23T05:49:50;27.90;91.10
3727;DHT22;1879;45.876;12.300;2022-07-23T05:52:17;28.00;91.00
3727;DHT22;1879;45.876;12.300;2022-07-23T05:54:44;28.10;91.20
3727;DHT22;1879;45.876;12.300;2022-07-23T05:57:13;28.20;91.20
3727;DHT22;1879;45.876;12.300;2022-07-23T05:59:40;28.40;91.20
3727;DHT22;1879;45.876;12.300;2022-07-23T06:02:07;28.50;91.00
3727;DHT22;1879;45.876;12.300;2022-07-23T06:04:34;28.70;91.40
3727;DHT22;1879;45.876;12.300;2022-07-23T06:07:01;28.80;91.20
3727;DHT22;1879;45.876;12.300;2022-07-23T06:09:28;28.90;91.20
3727;DHT22;1879;45.876;12.300;2022-07-23T06:11:55;28.90;90.60
3727;DHT22;1879;45.876;12.300;2022-07-23T06:14:23;28.90;90.30
3727;DHT22;1879;45.876;12.300;2022-07-23T06:16:50;29.00;90.10
3727;DHT22;1879;45.876;12.300;2022-07-23T06:19:17;29.00;89.70
3727;DHT22;1879;45.876;12.300;2022-07-23T06:21:44;29.00;90.10
3727;DHT22;1879;45.876;12.300;2022-07-23T06:24:11;28.90;90.60
3727;DHT22;1879;45.876;12.300;2022-07-23T06:26:38;28.90;91.30
3727;DHT22;1879;45.876;12.300;2022-07-23T06:29:05;28.90;91.60
3727;DHT22;1879;45.876;12.300;2022-07-23T06:31:34;28.90;92.20
3727;DHT22;1879;45.876;12.300;2022-07-23T06:34:01;28.90;91.90
3727;DHT22;1879;45.876;12.300;2022-07-23T06:36:28;28.90;91.90
3727;DHT22;1879;45.876;12.300;2022-07-23T06:38:55;28.90;91.90
3727;DHT22;1879;45.876;12.300;2022-07-23T06:41:22;28.90;92.30
3727;DHT22;1879;45.876;12.300;2022-07-23T06:43:49;28.90;92.20
3727;DHT22;1879;45.876;12.300;2022-07-23T06:46:19;29.00;91.70
3727;DHT22;1879;45.876;12.300;2022-07-23T06:48:48;29.20;91.40
3727;DHT22;1879;45.876;12.300;2022-07-23T06:51:15;29.30;91.10
3727;DHT22;1879;45.876;12.300;2022-07-23T06:53:42;29.30;91.20
3727;DHT22;1879;45.876;12.300;2022-07-23T06:56:09;29.40;91.10
3727;DHT22;1879;45.876;12.300;2022-07-23T06:58:36;29.40;90.60
3727;DHT22;1879;45.876;12.300;2022-07-23T07:01:03;29.50;90.50
3727;DHT22;1879;45.876;12.300;2022-07-23T07:03:30;29.50;89.30
3727;DHT22;1879;45.876;12.300;2022-07-23T07:05:58;29.60;89.50
3727;DHT22;1879;45.876;12.300;2022-07-23T07:08:25;29.60;86.30
3727;DHT22;1879;45.876;12.300;2022-07-23T07:10:52;29.70;85.80
3727;DHT22;1879;45.876;12.300;2022-07-23T07:13:19;29.80;83.60
3727;DHT22;1879;45.876;12.300;2022-07-23T07:15:46;29.80;88.20
3727;DHT22;1879;45.876;12.300;2022-07-23T07:18:13;29.90;90.10
3727;DHT22;1879;45.876;12.300;2022-07-23T07:20:40;30.00;89.90
3727;DHT22;1879;45.876;12.300;2022-07-23T07:23:09;30.10;89.10
3727;DHT22;1879;45.876;12.300;2022-07-23T07:25:36;30.20;88.50
3727;DHT22;1879;45.876;12.300;2022-07-23T07:28:04;30.30;88.80
3727;DHT22;1879;45.876;12.300;2022-07-23T07:30:31;30.30;88.10
3727;DHT22;1879;45.876;12.300;2022-07-23T07:32:58;30.40;88.10
3727;DHT22;1879;45.876;12.300;2022-07-23T07:35:25;30.50;86.90
3727;DHT22;1879;45.876;12.300;2022-07-23T07:37:52;30.50;87.60
3727;DHT22;1879;45.876;12.300;2022-07-23T07:40:20;30.60;88.10
3727;DHT22;1879;45.876;12.300;2022-07-23T07:42:48;30.70;89.10
3727;DHT22;1879;45.876;12.300;2022-07-23T07:45:16;30.80;89.20
3727;DHT22;1879;45.876;12.300;2022-07-23T07:47:43;30.80;89.00
3727;DHT22;1879;45.876;12.300;2022-07-23T07:50:10;30.90;83.90
3727;DHT22;1879;45.876;12.300;2022-07-23T07:52:37;30.90;82.20
3727;DHT22;1879;45.876;12.300;2022-07-23T07:55:06;31.00;82.20
3727;DHT22;1879;45.876;12.300;2022-07-23T07:57:35;31.10;81.60
3727;DHT22;1879;45.876;12.300;2022-07-23T08:00:03;31.10;80.70
3727;DHT22;1879;45.876;12.300;2022-07-23T08:02:40;31.20;82.50
3727;DHT22;1879;45.876;12.300;2022-07-23T08:05:07;31.30;83.80
3727;DHT22;1879;45.876;12.300;2022-07-23T08:07:34;31.30;83.30
3727;DHT22;1879;45.876;12.300;2022-07-23T08:10:03;31.50;82.90
3727;DHT22;1879;45.876;12.300;2022-07-23T08:12:39;31.50;83.10
3727;DHT22;1879;45.876;12.300;2022-07-23T08:15:08;31.50;82.60
3727;DHT22;1879;45.876;12.300;2022-07-23T08:17:35;31.60;82.60
3727;DHT22;1879;45.876;12.300;2022-07-23T08:20:03;31.70;83.70
3727;DHT22;1879;45.876;12.300;2022-07-23T08:22:47;31.70;84.90
3727;DHT22;1879;45.876;12.300;2022-07-23T08:25:15;31.80;84.70
3727;DHT22;1879;45.876;12.300;2022-07-23T08:27:44;31.90;85.60
3727;DHT22;1879;45.876;12.300;2022-07-23T08:30:11;32.00;69.60
3727;DHT22;1879;45.876;12.300;2022-07-23T08:32:52;32.10;70.60
3727;DHT22;1879;45.876;12.300;2022-07-23T08:35:25;32.10;68.70
3727;DHT22;1879;45.876;12.300;2022-07-23T08:37:53;32.20;69.60
3727;DHT22;1879;45.876;12.300;2022-07-23T08:40:20;32.20;69.30
3727;DHT22;1879;45.876;12.300;2022-07-23T08:42:50;32.30;69.30
3727;DHT22;1879;45.876;12.300;2022-07-23T08:45:19;32.30;68.80
3727;DHT22;1879;45.876;12.300;2022-07-23T08:47:51;32.40;69.40
3727;DHT22;1879;45.876;12.300;2022-07-23T08:50:19;32.40;66.00
3727;DHT22;1879;45.876;12.300;2022-07-23T08:52:48;32.50;65.20
3727;DHT22;1879;45.876;12.300;2022-07-23T08:55:16;32.60;64.60
3727;DHT22;1879;45.876;12.300;2022-07-23T08:57:43;32.80;63.90
3727;DHT22;1879;45.876;12.300;2022-07-23T09:00:13;32.80;64.20
3727;DHT22;1879;45.876;12.300;2022-07-23T09:02:41;32.90;62.50
3727;DHT22;1879;45.876;12.300;2022-07-23T09:05:09;33.00;62.40
3727;DHT22;1879;45.876;12.300;2022-07-23T09:07:37;33.20;63.00
3727;DHT22;1879;45.876;12.300;2022-07-23T09:10:06;33.30;62.00
3727;DHT22;1879;45.876;12.300;2022-07-23T09:12:34;33.40;61.00
3727;DHT22;1879;45.876;12.300;2022-07-23T09:15:05;33.50;60.60
3727;DHT22;1879;45.876;12.300;2022-07-23T09:17:39;33.60;59.70
3727;DHT22;1879;45.876;12.300;2022-07-23T09:20:11;33.70;59.40
3727;DHT22;1879;45.876;12.300;2022-07-23T09:22:38;33.70;59.00
3727;DHT22;1879;45.876;12.300;2022-07-23T09:25:09;33.80;59.00
3727;DHT22;1879;45.876;12.300;2022-07-23T09:27:48;33.90;58.70
3727;DHT22;1879;45.876;12.300;2022-07-23T09:30:16;34.00;58.80
3727;DHT22;1879;45.876;12.300;2022-07-23T09:32:44;34.10;58.20
3727;DHT22;1879;45.876;12.300;2022-07-23T09:35:43;34.10;58.20
3727;DHT22;1879;45.876;12.300;2022-07-23T09:38:10;34.20;57.90
3727;DHT22;1879;45.876;12.300;2022-07-23T09:40:37;34.40;58.50
3727;DHT22;1879;45.876;12.300;2022-07-23T09:43:04;34.50;57.50
3727;DHT22;1879;45.876;12.300;2022-07-23T09:45:32;34.60;57.60
3727;DHT22;1879;45.876;12.300;2022-07-23T09:48:12;34.70;57.50
3727;DHT22;1879;45.876;12.300;2022-07-23T09:50:40;34.80;56.70
3727;DHT22;1879;45.876;12.300;2022-07-23T09:53:07;34.70;54.50
3727;DHT22;1879;45.876;12.300;2022-07-23T09:55:35;34.90;56.50
3727;DHT22;1879;45.876;12.300;2022-07-23T09:58:05;35.00;56.90
3727;DHT22;1879;45.876;12.300;2022-07-23T10:00:35;34.90;54.40
3727;DHT22;1879;45.876;12.300;2022-07-23T10:03:03;34.90;56.10
3727;DHT22;1879;45.876;12.300;2022-07-23T10:05:33;34.80;56.90
3727;DHT22;1879;45.876;12.300;2022-07-23T10:08:02;34.70;56.60
3727;DHT22;1879;45.876;12.300;2022-07-23T10:10:30;34.40;57.20
3727;DHT22;1879;45.876;12.300;2022-07-23T10:12:59;34.40;56.30
3727;DHT22;1879;45.876;12.300;2022-07-23T10:15:43;34.50;54.60
3727;DHT22;1879;45.876;12.300;2022-07-23T10:18:11;34.70;53.50
3727;DHT22;1879;45.876;12.300;2022-07-23T10:20:43;34.70;52.80
3727;DHT22;1879;45.876;12.300;2022-07-23T10:23:16;34.60;53.40
3727;DHT22;1879;45.876;12.300;2022-07-23T10:25:49;34.70;54.10
3727;DHT22;1879;45.876;12.300;2022-07-23T10:28:46;34.90;53.20
3727;DHT22;1879;45.876;12.300;2022-07-23T10:31:25;35.00;51.70
3727;DHT22;1879;45.876;12.300;2022-07-23T10:36:47;35.30;52.10
3727;DHT22;1879;45.876;12.300;2022-07-23T10:39:22;35.40;52.10
3727;DHT22;1879;45.876;12.300;2022-07-23T10:41:49;35.50;51.50
3727;DHT22;1879;45.876;12.300;2022-07-23T10:44:19;35.50;50.80
3727;DHT22;1879;45.876;12.300;2022-07-23T10:46:57;35.40;51.70
3727;DHT22;1879;45.876;12.300;2022-07-23T10:49:38;35.40;50.50
3727;DHT22;1879;45.876;12.300;2022-07-23T10:52:20;35.50;51.70
3727;DHT22;1879;45.876;12.300;2022-07-23T10:54:49;35.60;51.50
3727;DHT22;1879;45.876;12.300;2022-07-23T10:57:18;35.90;50.00
3727;DHT22;1879;45.876;12.300;2022-07-23T11:00:15;36.10;51.20
3727;DHT22;1879;45.876;12.300;2022-07-23T11:02:45;36.10;50.20
3727;DHT22;1879;45.876;12.300;2022-07-23T11:05:13;36.30;49.80
3727;DHT22;1879;45.876;12.300;2022-07-23T11:08:16;36.30;50.20
3727;DHT22;1879;45.876;12.300;2022-07-23T11:10:46;36.30;49.30
3727;DHT22;1879;45.876;12.300;2022-07-23T11:16:17;37.00;49.70
3727;DHT22;1879;45.876;12.300;2022-07-23T11:19:06;37.30;49.20
3727;DHT22;1879;45.876;12.300;2022-07-23T11:21:52;37.60;49.70
3727;DHT22;1879;45.876;12.300;2022-07-23T11:24:24;37.70;49.40
3727;DHT22;1879;45.876;12.300;2022-07-23T11:27:00;38.00;49.60
3727;DHT22;1879;45.876;12.300;2022-07-23T11:29:44;38.40;49.10
3727;DHT22;1879;45.876;12.300;2022-07-23T11:35:21;39.10;47.30
3727;DHT22;1879;45.876;12.300;2022-07-23T11:37:49;39.30;47.10
3727;DHT22;1879;45.876;12.300;2022-07-23T11:40:21;39.30;47.20
3727;DHT22;1879;45.876;12.300;2022-07-23T11:42:56;39.00;45.80
3727;DHT22;1879;45.876;12.300;2022-07-23T11:45:23;38.90;45.00
3727;DHT22;1879;45.876;12.300;2022-07-23T11:47:51;38.80;99.90
3727;DHT22;1879;45.876;12.300;2022-07-23T11:50:18;38.70;99.90
3727;DHT22;1879;45.876;12.300;2022-07-23T11:52:45;38.60;99.90
3727;DHT22;1879;45.876;12.300;2022-07-23T11:55:12;38.60;99.90
3727;DHT22;1879;45.876;12.300;2022-07-23T11:57:43;38.70;99.90
3727;DHT22;1879;45.876;12.300;2022-07-23T12:00:13;38.80;99.90
3727;DHT22;1879;45.876;12.300;2022-07-23T12:02:42;38.90;99.90
3727;DHT22;1879;45.876;12.300;2022-07-23T12:05:11;38.90;99.90
3727;DHT22;1879;45.876;12.300;2022-07-23T12:07:40;39.20;99.90
3727;DHT22;1879;45.876;12.300;2022-07-23T12:10:11;39.40;99.90
3727;DHT22;1879;45.876;12.300;2022-07-23T12:12:43;39.30;99.90
3727;DHT22;1879;45.876;12.300;2022-07-23T12:15:11;39.00;99.90
3727;DHT22;1879;45.876;12.300;2022-07-23T12:17:40;38.80;99.90
3727;DHT22;1879;45.876;12.300;2022-07-23T12:20:09;38.70;99.90
3727;DHT22;1879;45.876;12.300;2022-07-23T12:22:40;38.60;99.90
3727;DHT22;1879;45.876;12.300;2022-07-23T12:25:12;38.60;99.90
3727;DHT22;1879;45.876;12.300;2022-07-23T12:27:43;38.60;99.90
3727;DHT22;1879;45.876;12.300;2022-07-23T12:30:31;38.80;99.90
3727;DHT22;1879;45.876;12.300;2022-07-23T12:32:59;38.70;99.90
3727;DHT22;1879;45.876;12.300;2022-07-23T12:35:31;38.60;99.90
3727;DHT22;1879;45.876;12.300;2022-07-23T12:38:01;38.80;99.90
3727;DHT22;1879;45.876;12.300;2022-07-23T12:40:30;39.30;99.90
3727;DHT22;1879;45.876;12.300;2022-07-23T12:43:01;39.60;99.90
3727;DHT22;1879;45.876;12.300;2022-07-23T12:45:42;39.80;99.90
3727;DHT22;1879;45.876;12.300;2022-07-23T12:48:16;39.70;99.90
3727;DHT22;1879;45.876;12.300;2022-07-23T12:50:47;39.80;99.90
3727;DHT22;1879;45.876;12.300;2022-07-23T12:53:17;39.80;99.90
3727;DHT22;1879;45.876;12.300;2022-07-23T12:55:46;40.00;99.90
3727;DHT22;1879;45.876;12.300;2022-07-23T12:58:16;40.20;99.90
3727;DHT22;1879;45.876;12.300;2022-07-23T13:01:02;40.50;99.90
3727;DHT22;1879;45.876;12.300;2022-07-23T13:03:33;40.50;99.90
3727;DHT22;1879;45.876;12.300;2022-07-23T13:06:02;40.80;99.90
3727;DHT22;1879;45.876;12.300;2022-07-23T13:08:33;41.00;99.90
3727;DHT22;1879;45.876;12.300;2022-07-23T13:11:01;41.30;99.90
3727;DHT22;1879;45.876;12.300;2022-07-23T13:13:31;41.50;99.90
3727;DHT22;1879;45.876;12.300;2022-07-23T13:15:59;41.70;99.90
3727;DHT22;1879;45.876;12.300;2022-07-23T13:18:27;41.70;99.90
3727;DHT22;1879;45.876;12.300;2022-07-23T13:20:55;42.00;99.90
3727;DHT22;1879;45.876;12.300;2022-07-23T13:23:22;42.00;99.90
3727;DHT22;1879;45.876;12.300;2022-07-23T13:25:49;42.10;99.90
3727;DHT22;1879;45.876;12.300;2022-07-23T13:28:17;42.10;99.90
3727;DHT22;1879;45.876;12.300;2022-07-23T13:30:47;42.20;99.90
3727;DHT22;1879;45.876;12.300;2022-07-23T13:33:16;42.20;99.90
3727;DHT22;1879;45.876;12.300;2022-07-23T13:35:43;42.20;99.90
3727;DHT22;1879;45.876;12.300;2022-07-23T13:38:11;42.00;99.90
3727;DHT22;1879;45.876;12.300;2022-07-23T13:40:40;42.00;99.90
3727;DHT22;1879;45.876;12.300;2022-07-23T13:43:08;42.00;99.90
3727;DHT22;1879;45.876;12.300;2022-07-23T13:45:35;42.20;99.90
3727;DHT22;1879;45.876;12.300;2022-07-23T13:48:05;42.10;99.90
3727;DHT22;1879;45.876;12.300;2022-07-23T13:50:33;41.70;99.90
3727;DHT22;1879;45.876;12.300;2022-07-23T13:53:01;41.40;99.90
3727;DHT22;1879;45.876;12.300;2022-07-23T13:55:29;41.10;99.90
3727;DHT22;1879;45.876;12.300;2022-07-23T13:57:56;41.10;99.90
3727;DHT22;1879;45.876;12.300;2022-07-23T14:00:23;41.20;99.90
3727;DHT22;1879;45.876;12.300;2022-07-23T14:02:50;41.60;99.90
3727;DHT22;1879;45.876;12.300;2022-07-23T14:05:18;42.00;99.90
3727;DHT22;1879;45.876;12.300;2022-07-23T14:07:45;42.30;99.90
3727;DHT22;1879;45.876;12.300;2022-07-23T14:10:15;42.40;99.90
3727;DHT22;1879;45.876;12.300;2022-07-23T14:12:43;42.50;99.90
3727;DHT22;1879;45.876;12.300;2022-07-23T14:15:11;42.80;99.90
3727;DHT22;1879;45.876;12.300;2022-07-23T14:17:40;42.70;99.90
3727;DHT22;1879;45.876;12.300;2022-07-23T14:20:10;42.50;99.90
3727;DHT22;1879;45.876;12.300;2022-07-23T14:22:40;42.30;99.90
3727;DHT22;1879;45.876;12.300;2022-07-23T14:25:10;42.30;99.90
3727;DHT22;1879;45.876;12.300;2022-07-23T14:27:38;42.10;99.90
3727;DHT22;1879;45.876;12.300;2022-07-23T14:30:06;42.20;99.90
3727;DHT22;1879;45.876;12.300;2022-07-23T14:32:34;41.90;99.90
3727;DHT22;1879;45.876;12.300;2022-07-23T14:35:02;42.00;99.90
3727;DHT22;1879;45.876;12.300;2022-07-23T14:37:30;42.10;99.90
3727;DHT22;1879;45.876;12.300;2022-07-23T14:39:58;42.00;99.90
3727;DHT22;1879;45.876;12.300;2022-07-23T14:42:25;42.00;99.90
3727;DHT22;1879;45.876;12.300;2022-07-23T14:44:52;41.70;99.90
3727;DHT22;1879;45.876;12.300;2022-07-23T14:47:19;41.60;99.90
3727;DHT22;1879;45.876;12.300;2022-07-23T14:49:47;41.80;99.90
3727;DHT22;1879;45.876;12.300;2022-07-23T14:52:14;42.10;99.90
3727;DHT22;1879;45.876;12.300;2022-07-23T14:54:41;42.10;99.90
3727;DHT22;1879;45.876;12.300;2022-07-23T14:57:09;41.80;99.90
3727;DHT22;1879;45.876;12.300;2022-07-23T14:59:37;41.60;99.90
3727;DHT22;1879;45.876;12.300;2022-07-23T15:02:04;41.40;99.90
3727;DHT22;1879;45.876;12.300;2022-07-23T15:04:31;41.20;99.90
3727;DHT22;1879;45.876;12.300;2022-07-23T15:06:58;41.10;99.90
3727;DHT22;1879;45.876;12.300;2022-07-23T15:09:25;41.10;99.90
3727;DHT22;1879;45.876;12.300;2022-07-23T15:11:52;41.30;99.90
3727;DHT22;1879;45.876;12.300;2022-07-23T15:14:20;41.50;99.90
3727;DHT22;1879;45.876;12.300;2022-07-23T15:16:47;41.80;99.90
3727;DHT22;1879;45.876;12.300;2022-07-23T15:19:14;42.10;99.90
3727;DHT22;1879;45.876;12.300;2022-07-23T15:21:41;42.20;99.90
3727;DHT22;1879;45.876;12.300;2022-07-23T15:24:08;42.40;99.90
3727;DHT22;1879;45.876;12.300;2022-07-23T15:26:36;42.50;99.90
3727;DHT22;1879;45.876;12.300;2022-07-23T15:29:03;42.50;99.90
3727;DHT22;1879;45.876;12.300;2022-07-23T15:31:33;42.50;99.90
3727;DHT22;1879;45.876;12.300;2022-07-23T15:34:00;42.60;99.90
3727;DHT22;1879;45.876;12.300;2022-07-23T15:36:27;42.60;99.90
3727;DHT22;1879;45.876;12.300;2022-07-23T15:38:54;42.50;99.90
3727;DHT22;1879;45.876;12.300;2022-07-23T15:41:21;42.30;99.90
3727;DHT22;1879;45.876;12.300;2022-07-23T15:43:48;41.80;99.90
3727;DHT22;1879;45.876;12.300;2022-07-23T15:46:16;41.30;99.90
3727;DHT22;1879;45.876;12.300;2022-07-23T15:48:45;40.90;99.90
3727;DHT22;1879;45.876;12.300;2022-07-23T15:51:13;40.70;99.90
3727;DHT22;1879;45.876;12.300;2022-07-23T15:53:41;40.50;99.90
3727;DHT22;1879;45.876;12.300;2022-07-23T15:56:10;40.30;99.90
3727;DHT22;1879;45.876;12.300;2022-07-23T15:58:37;39.90;99.90
3727;DHT22;1879;45.876;12.300;2022-07-23T16:01:04;39.70;99.90
3727;DHT22;1879;45.876;12.300;2022-07-23T16:03:33;39.30;99.90